Time;durP1;ratioP1;P1;durP2;ratioP2;P2;SDS_P1;SDS_P2;PMS_P1;PMS_P2;Temp;Humidity;BMP_temperature;BMP_pressure;BME280_temperature;BME280_humidity;BME280_pressure;Samples;Min_cycle;Max_cycle;Signal;HPM_P1;HPM_P2
2022/04/28 00:00:58;;;;;;;8.20;6.33;;;6.90;99.90;;;;;;5050317;28;20583;-67
2022/04/28 00:03:46;;;;;;;8.10;6.97;;;6.90;99.90;;;;;;5053197;28;20493;-67
2022/04/28 00:06:34;;;;;;;12.50;7.33;;;6.90;99.90;;;;;;5048865;28;20546;-67
2022/04/28 00:09:22;;;;;;;7.10;6.10;;;6.80;99.90;;;;;;5051402;28;20959;-67
2022/04/28 00:12:12;;;;;;;10.60;6.30;;;6.80;99.90;;;;;;5047453;28;20465;-67
2022/04/28 00:15:00;;;;;;;12.73;8.00;;;6.70;99.90;;;;;;5048471;28;21031;-67
2022/04/28 00:17:50;;;;;;;9.40;6.60;;;6.70;99.90;;;;;;5051002;28;20523;-67
2022/04/28 00:20:38;;;;;;;9.03;6.60;;;6.70;99.90;;;;;;5050929;28;20497;-67
2022/04/28 00:23:26;;;;;;;12.83;7.57;;;6.60;99.90;;;;;;5047907;28;20523;-67
2022/04/28 00:26:15;;;;;;;10.80;6.37;;;6.60;99.90;;;;;;5054138;28;20452;-67
2022/04/28 00:29:03;;;;;;;9.20;6.67;;;6.50;99.90;;;;;;5049082;28;20607;-67
2022/04/28 00:31:51;;;;;;;10.53;6.70;;;6.50;99.90;;;;;;5050749;28;20455;-67
2022/04/28 00:34:41;;;;;;;9.07;6.17;;;6.40;99.90;;;;;;5054871;28;20980;-67
2022/04/28 00:37:29;;;;;;;7.67;6.30;;;6.40;99.90;;;;;;5048454;28;21012;-67
2022/04/28 00:40:18;;;;;;;9.00;6.83;;;6.40;99.90;;;;;;5052954;28;20794;-67
2022/04/28 00:43:19;;;;;;;6.97;6.27;;;6.40;99.90;;;;;;5053032;28;20470;-67
2022/04/28 00:46:07;;;;;;;9.50;6.90;;;6.30;99.90;;;;;;5050994;28;20572;-67
2022/04/28 00:52:03;;;;;;;8.80;6.97;;;6.30;99.90;;;;;;5045083;28;20629;-67
2022/04/28 00:54:55;;;;;;;10.60;7.60;;;6.20;99.90;;;;;;5054735;28;20932;-67
2022/04/28 00:57:45;;;;;;;10.20;7.50;;;6.20;99.90;;;;;;5052841;28;21515;-67
2022/04/28 01:00:33;;;;;;;7.97;7.17;;;6.20;99.90;;;;;;5054113;28;21062;-67
2022/04/28 01:03:21;;;;;;;9.07;6.73;;;6.10;99.90;;;;;;5052409;28;20478;-67
2022/04/28 01:06:10;;;;;;;8.80;7.00;;;6.10;99.90;;;;;;5051975;28;20957;-67
2022/04/28 01:09:02;;;;;;;8.83;6.80;;;6.10;99.90;;;;;;5047607;28;20462;-67
2022/04/28 01:11:50;;;;;;;11.00;7.57;;;6.10;99.90;;;;;;5053669;28;21011;-67
2022/04/28 01:14:38;;;;;;;8.57;6.40;;;6.00;99.90;;;;;;5049404;28;20591;-67
2022/04/28 01:17:27;;;;;;;11.20;7.80;;;6.00;99.90;;;;;;5054141;28;20461;-67
2022/04/28 01:20:15;;;;;;;9.63;7.27;;;5.90;99.90;;;;;;5048378;28;20569;-67
2022/04/28 01:23:06;;;;;;;10.50;7.33;;;5.90;99.90;;;;;;5053784;28;20477;-67
2022/04/28 01:25:54;;;;;;;10.30;7.10;;;5.90;99.90;;;;;;5050880;28;20516;-67
2022/04/28 01:28:42;;;;;;;8.70;7.40;;;5.90;99.90;;;;;;5048706;28;20513;-67
2022/04/28 01:31:30;;;;;;;10.90;7.50;;;5.80;99.90;;;;;;5051305;28;20520;-66
2022/04/28 01:34:19;;;;;;;11.40;7.60;;;5.80;99.90;;;;;;5053893;28;20478;-67
2022/04/28 01:37:07;;;;;;;9.07;7.50;;;5.80;99.90;;;;;;5051329;28;20605;-67
2022/04/28 01:39:56;;;;;;;10.00;7.47;;;5.70;99.90;;;;;;5052803;28;20914;-68
2022/04/28 01:42:47;;;;;;;11.30;8.00;;;5.70;99.90;;;;;;5051077;28;20541;-67
2022/04/28 01:45:35;;;;;;;8.93;7.00;;;5.70;99.90;;;;;;5041099;28;20557;-68
2022/04/28 01:48:24;;;;;;;8.70;7.40;;;5.70;99.90;;;;;;5050698;28;20548;-68
2022/04/28 01:57:25;;;;;;;9.43;8.07;;;5.60;99.90;;;;;;5049226;28;20471;-68
2022/04/28 02:00:18;;;;;;;8.00;7.07;;;5.50;99.90;;;;;;5050747;28;20500;-68
2022/04/28 02:03:07;;;;;;;12.60;7.40;;;5.50;99.90;;;;;;5052083;28;20593;-68
2022/04/28 02:05:55;;;;;;;11.37;7.17;;;5.50;99.90;;;;;;5048595;28;20464;-68
2022/04/28 02:08:44;;;;;;;9.63;6.50;;;5.50;99.90;;;;;;5051456;28;20545;-68
2022/04/28 02:11:33;;;;;;;8.33;7.40;;;5.50;99.90;;;;;;5054349;28;20569;-68
2022/04/28 02:14:22;;;;;;;7.90;6.67;;;5.40;99.90;;;;;;5048977;28;20564;-67
2022/04/28 02:17:10;;;;;;;11.33;7.93;;;5.40;99.90;;;;;;5052469;28;20555;-67
2022/04/28 02:20:03;;;;;;;11.40;7.50;;;5.40;99.90;;;;;;5047606;28;20568;-70
2022/04/28 02:22:51;;;;;;;9.67;7.10;;;5.40;99.90;;;;;;5050780;28;20577;-67
2022/04/28 02:25:39;;;;;;;9.70;8.13;;;5.30;99.90;;;;;;5048425;28;20461;-68
2022/04/28 02:28:28;;;;;;;11.23;7.77;;;5.30;99.90;;;;;;5050060;28;20561;-68
2022/04/28 02:31:17;;;;;;;14.20;7.90;;;5.30;99.90;;;;;;5048796;28;20474;-68
2022/04/28 02:34:07;;;;;;;10.53;7.67;;;5.30;99.90;;;;;;5052020;28;20510;-68
2022/04/28 02:36:55;;;;;;;9.97;7.67;;;5.30;99.90;;;;;;5049892;28;20583;-68
2022/04/28 02:39:43;;;;;;;11.00;7.10;;;5.30;99.90;;;;;;5048756;28;20497;-68
2022/04/28 02:42:31;;;;;;;14.33;7.57;;;5.20;99.90;;;;;;5055518;28;21051;-68
2022/04/28 02:45:19;;;;;;;10.93;8.00;;;5.20;99.90;;;;;;5046611;28;20623;-67
2022/04/28 02:48:09;;;;;;;13.80;8.23;;;5.20;99.90;;;;;;5050495;28;20472;-67
2022/04/28 02:50:57;;;;;;;12.43;8.00;;;5.20;99.90;;;;;;5048200;28;20556;-67
2022/04/28 02:53:45;;;;;;;11.20;7.80;;;5.10;99.90;;;;;;5045582;28;20731;-67
2022/04/28 02:56:33;;;;;;;13.10;8.30;;;5.10;99.90;;;;;;5044351;28;20458;-67
2022/04/28 02:59:21;;;;;;;9.63;8.33;;;5.10;99.90;;;;;;5047676;28;21498;-68
2022/04/28 03:02:10;;;;;;;12.97;8.57;;;5.00;99.90;;;;;;5047135;28;20552;-67
2022/04/28 03:05:01;;;;;;;13.13;8.20;;;5.00;99.90;;;;;;5045385;28;21021;-68
2022/04/28 03:10:57;;;;;;;13.07;8.70;;;5.00;99.90;;;;;;5049548;28;20561;-68
2022/04/28 03:13:45;;;;;;;13.70;8.70;;;5.00;99.90;;;;;;5041294;28;20572;-68
2022/04/28 03:16:33;;;;;;;13.07;8.93;;;5.00;99.90;;;;;;5045965;28;20935;-67
2022/04/28 03:19:21;;;;;;;11.73;9.30;;;5.00;99.90;;;;;;5050335;28;20468;-68
2022/04/28 03:22:11;;;;;;;10.63;9.30;;;5.00;99.90;;;;;;5048641;28;20450;-67
2022/04/28 03:24:59;;;;;;;13.90;10.30;;;4.90;99.90;;;;;;5046504;28;20491;-68
2022/04/28 03:27:47;;;;;;;12.33;10.07;;;4.90;99.90;;;;;;5051158;28;20458;-68
2022/04/28 03:30:35;;;;;;;12.57;10.03;;;4.90;99.90;;;;;;5041204;28;21009;-68
2022/04/28 03:33:23;;;;;;;14.50;10.63;;;4.90;99.90;;;;;;5047787;28;20658;-67
2022/04/28 03:39:15;;;;;;;15.57;10.10;;;4.80;99.90;;;;;;5050903;28;20874;-67
2022/04/28 03:42:03;;;;;;;13.93;10.10;;;4.80;99.90;;;;;;5044136;28;20520;-66
2022/04/28 03:44:52;;;;;;;15.67;9.83;;;4.80;99.90;;;;;;5049649;28;20571;-67
2022/04/28 03:47:40;;;;;;;14.10;10.50;;;4.80;99.90;;;;;;5039020;28;20470;-67
2022/04/28 03:50:29;;;;;;;15.93;9.60;;;4.80;99.90;;;;;;5052894;28;20505;-67
2022/04/28 03:53:18;;;;;;;14.17;10.37;;;4.80;99.90;;;;;;5050531;28;20631;-67
2022/04/28 03:56:07;;;;;;;14.50;10.30;;;4.70;99.90;;;;;;5048642;28;20466;-67
2022/04/28 03:58:55;;;;;;;15.87;10.93;;;4.70;99.90;;;;;;5051377;28;20542;-67
2022/04/28 04:01:43;;;;;;;17.63;11.80;;;4.70;99.90;;;;;;5049454;28;20542;-67
2022/04/28 04:04:37;;;;;;;17.13;10.23;;;4.70;99.90;;;;;;5049759;28;20574;-67
2022/04/28 04:07:29;;;;;;;16.33;10.83;;;4.70;99.90;;;;;;5049379;28;20820;-67
2022/04/28 04:10:18;;;;;;;20.83;11.70;;;4.70;99.90;;;;;;5054892;28;21088;-67
2022/04/28 04:13:07;;;;;;;16.00;10.60;;;4.70;99.90;;;;;;5055588;28;20615;-67
2022/04/28 04:15:55;;;;;;;15.83;11.37;;;4.60;99.90;;;;;;5051518;28;20450;-67
2022/04/28 04:18:43;;;;;;;15.53;10.70;;;4.60;99.90;;;;;;5049201;28;20455;-67
2022/04/28 04:21:32;;;;;;;20.50;11.20;;;4.70;99.90;;;;;;5052094;28;20573;-68
2022/04/28 04:24:20;;;;;;;16.93;12.00;;;4.60;99.90;;;;;;5052106;28;20486;-67
2022/04/28 04:27:09;;;;;;;15.53;11.40;;;4.70;99.90;;;;;;5056185;28;20604;-68
2022/04/28 04:29:59;;;;;;;17.70;11.50;;;4.60;99.90;;;;;;5055262;28;20809;-68
2022/04/28 04:32:46;;;;;;;20.50;11.80;;;4.70;99.90;;;;;;5052649;28;20514;-67
2022/04/28 04:35:34;;;;;;;18.37;12.20;;;4.70;99.90;;;;;;5052990;28;20516;-67
2022/04/28 04:38:22;;;;;;;17.47;12.00;;;4.70;99.90;;;;;;5050562;28;20449;-67
2022/04/28 04:41:11;;;;;;;16.00;11.80;;;4.70;99.90;;;;;;5050589;28;20550;-67
2022/04/28 04:43:59;;;;;;;18.87;12.03;;;4.70;99.90;;;;;;5049493;28;20853;-67
2022/04/28 04:46:48;;;;;;;18.23;11.70;;;4.80;99.90;;;;;;5045596;28;20468;-67
2022/04/28 04:49:37;;;;;;;16.57;12.50;;;4.80;99.90;;;;;;5052967;28;20488;-67
2022/04/28 04:52:25;;;;;;;15.17;11.80;;;4.80;99.90;;;;;;5047235;28;20510;-67
2022/04/28 04:55:13;;;;;;;16.13;11.70;;;4.80;99.90;;;;;;5049171;28;20828;-67
2022/04/28 04:58:01;;;;;;;19.13;12.10;;;4.90;99.90;;;;;;5045021;28;20458;-68
2022/04/28 05:00:50;;;;;;;17.13;12.50;;;4.90;99.90;;;;;;5050020;28;20469;-67
2022/04/28 05:03:41;;;;;;;16.43;11.53;;;5.00;99.90;;;;;;5053405;28;21180;-68
2022/04/28 05:06:30;;;;;;;18.03;12.40;;;5.10;99.90;;;;;;5049500;28;20470;-67
2022/04/28 05:09:18;;;;;;;23.80;12.57;;;5.10;99.90;;;;;;5046794;28;20547;-67
2022/04/28 05:12:08;;;;;;;16.73;11.90;;;5.20;99.90;;;;;;5055559;28;20552;-67
2022/04/28 05:15:00;;;;;;;17.27;13.00;;;5.20;99.90;;;;;;5046700;28;21410;-67
2022/04/28 05:17:48;;;;;;;17.13;12.70;;;5.30;99.90;;;;;;5052887;28;20577;-67
2022/04/28 05:20:37;;;;;;;18.27;11.53;;;5.30;99.90;;;;;;5052933;28;20473;-67
2022/04/28 05:23:25;;;;;;;18.00;11.50;;;5.40;99.90;;;;;;5050783;28;20488;-67
2022/04/28 05:26:14;;;;;;;15.97;11.30;;;5.50;99.90;;;;;;5047442;28;20594;-67
2022/04/28 05:29:02;;;;;;;16.77;12.53;;;5.60;99.90;;;;;;5040535;28;20446;-66
2022/04/28 05:31:56;;;;;;;15.83;12.10;;;5.70;99.90;;;;;;5040761;28;20523;-66
2022/04/28 05:34:44;;;;;;;16.93;12.20;;;5.80;99.90;;;;;;5033669;28;20637;-67
2022/04/28 05:37:35;;;;;;;16.27;11.00;;;5.90;99.90;;;;;;5036690;28;20958;-67
2022/04/28 05:40:23;;;;;;;16.73;11.63;;;5.90;99.90;;;;;;5041261;28;20502;-67
2022/04/28 05:46:18;;;;;;;15.73;10.07;;;6.10;99.90;;;;;;5036904;28;20556;-66
2022/04/28 05:49:07;;;;;;;15.37;10.53;;;6.10;99.90;;;;;;5040995;28;20528;-67
2022/04/28 05:51:55;;;;;;;13.33;11.10;;;6.20;99.90;;;;;;5039122;28;20676;-67
2022/04/28 05:54:45;;;;;;;11.90;10.27;;;6.30;99.90;;;;;;5038707;28;20881;-67
2022/04/28 05:57:33;;;;;;;15.47;10.03;;;6.40;99.90;;;;;;5031949;28;20519;-67
2022/04/28 06:00:21;;;;;;;24.30;10.20;;;6.50;99.90;;;;;;5040028;28;20624;-67
2022/04/28 06:03:10;;;;;;;14.77;9.60;;;6.60;99.90;;;;;;5039050;28;20509;-67
2022/04/28 06:05:58;;;;;;;18.17;9.40;;;6.70;99.90;;;;;;5038436;28;20494;-66
2022/04/28 06:08:46;;;;;;;16.03;10.23;;;6.80;99.90;;;;;;5040064;28;20469;-66
2022/04/28 06:11:36;;;;;;;13.83;9.13;;;6.90;99.90;;;;;;5029595;28;20635;-66
2022/04/28 06:14:24;;;;;;;12.30;9.30;;;6.90;99.90;;;;;;5028561;28;20546;-67
2022/04/28 06:17:13;;;;;;;10.80;8.47;;;7.00;99.90;;;;;;5030085;28;20812;-66
2022/04/28 06:20:01;;;;;;;11.30;9.13;;;7.00;99.90;;;;;;5031126;28;20560;-66
2022/04/28 06:23:04;;;;;;;11.90;8.93;;;7.10;99.90;;;;;;5038197;28;20478;-66
2022/04/28 06:25:52;;;;;;;14.37;8.07;;;7.20;99.90;;;;;;5038785;28;20486;-67
2022/04/28 06:28:42;;;;;;;12.70;9.00;;;7.30;99.90;;;;;;5038262;28;20545;-67
2022/04/28 06:31:30;;;;;;;10.53;8.33;;;7.40;99.90;;;;;;5036552;28;20477;-66
2022/04/28 06:34:18;;;;;;;8.40;7.53;;;7.50;99.90;;;;;;5036923;28;20478;-66
2022/04/28 06:37:07;;;;;;;10.57;7.83;;;7.50;99.90;;;;;;5033554;28;20507;-67
2022/04/28 06:39:55;;;;;;;15.57;8.40;;;7.60;99.90;;;;;;5037710;28;20478;-67
2022/04/28 06:42:45;;;;;;;10.57;7.63;;;7.60;99.90;;;;;;5036101;28;20472;-67
2022/04/28 06:45:36;;;;;;;8.80;6.50;;;7.70;99.90;;;;;;5033076;28;20471;-66
2022/04/28 06:48:24;;;;;;;15.43;7.70;;;7.80;99.90;;;;;;5038715;28;21004;-67
2022/04/28 06:51:13;;;;;;;7.70;5.73;;;7.90;99.90;;;;;;5034492;28;20470;-66
2022/04/28 06:54:02;;;;;;;6.90;5.50;;;8.00;99.90;;;;;;5037437;28;20988;-67
2022/04/28 06:56:50;;;;;;;8.30;6.60;;;8.00;99.90;;;;;;5037850;28;20453;-67
2022/04/28 06:59:38;;;;;;;8.47;5.53;;;8.20;99.90;;;;;;5039421;28;20549;-67
2022/04/28 07:02:28;;;;;;;11.13;7.07;;;8.20;99.90;;;;;;5035115;28;20613;-67
2022/04/28 07:05:16;;;;;;;9.10;6.70;;;8.30;99.90;;;;;;5032300;28;20982;-67
2022/04/28 07:08:05;;;;;;;6.93;5.87;;;8.40;99.90;;;;;;5034230;28;20440;-67
2022/04/28 07:10:53;;;;;;;8.50;6.40;;;8.60;99.90;;;;;;5036231;28;20510;-67
2022/04/28 07:13:42;;;;;;;10.00;7.50;;;8.60;99.90;;;;;;5033320;28;22100;-67
2022/04/28 07:16:30;;;;;;;11.30;6.30;;;8.70;99.90;;;;;;5015273;28;22628;-67
2022/04/28 07:19:19;;;;;;;5.60;5.10;;;8.80;99.90;;;;;;5033778;28;20466;-67
2022/04/28 07:22:07;;;;;;;8.60;5.33;;;8.90;99.90;;;;;;5036386;28;20936;-67
2022/04/28 07:24:56;;;;;;;8.10;5.30;;;8.90;99.90;;;;;;5035812;28;20961;-67
2022/04/28 07:27:44;;;;;;;6.00;4.90;;;8.90;99.90;;;;;;5029961;28;20479;-67
2022/04/28 07:30:32;;;;;;;8.27;5.30;;;8.90;99.90;;;;;;5038464;28;20561;-67
2022/04/28 07:33:20;;;;;;;7.90;4.50;;;9.00;99.90;;;;;;5030954;28;20470;-67
2022/04/28 07:36:09;;;;;;;8.30;5.13;;;9.00;99.90;;;;;;5041003;28;20459;-67
2022/04/28 07:38:58;;;;;;;9.57;5.17;;;9.10;99.90;;;;;;5041058;28;20447;-68
2022/04/28 07:41:46;;;;;;;6.87;5.30;;;9.20;99.90;;;;;;5030712;28;20454;-68
2022/04/28 07:44:36;;;;;;;8.93;6.47;;;9.20;99.90;;;;;;5035653;28;20478;-66
2022/04/28 07:47:26;;;;;;;9.43;6.70;;;9.30;99.90;;;;;;5029518;28;20574;-66
2022/04/28 07:50:15;;;;;;;9.60;6.17;;;9.50;99.90;;;;;;5031525;28;20489;-75
2022/04/28 07:53:05;;;;;;;6.40;5.80;;;9.50;99.90;;;;;;5036866;28;20466;-71
2022/04/28 07:58:59;;;;;;;6.20;5.60;;;9.60;99.90;;;;;;5036781;28;20935;-76
2022/04/28 08:02:09;;;;;;;8.90;5.70;;;9.50;99.90;;;;;;5038654;28;20445;-73
2022/04/28 08:04:57;;;;;;;6.20;5.40;;;9.60;99.90;;;;;;5026145;28;20497;-73
2022/04/28 08:07:45;;;;;;;7.27;5.93;;;9.80;99.90;;;;;;5028426;28;22316;-75
2022/04/28 08:10:35;;;;;;;10.37;7.13;;;9.80;99.90;;;;;;5028492;28;20540;-75
2022/04/28 08:13:23;;;;;;;9.93;6.27;;;9.80;99.90;;;;;;5022830;28;20570;-74
2022/04/28 08:16:11;;;;;;;9.30;6.70;;;9.80;99.90;;;;;;5030853;28;20486;-75
2022/04/28 08:19:01;;;;;;;8.00;6.00;;;9.90;99.90;;;;;;5041370;28;20532;-75
2022/04/28 08:21:50;;;;;;;9.13;8.23;;;9.90;99.90;;;;;;5038901;28;20446;-75
2022/04/28 08:24:38;;;;;;;10.37;6.67;;;9.90;99.90;;;;;;5034943;28;20548;-75
2022/04/28 08:27:28;;;;;;;9.73;6.23;;;10.00;99.90;;;;;;5036854;28;20480;-75
2022/04/28 08:30:16;;;;;;;7.40;6.70;;;10.00;99.90;;;;;;5036720;28;20862;-74
2022/04/28 08:33:05;;;;;;;7.13;6.33;;;10.10;99.90;;;;;;5034075;28;20478;-75
2022/04/28 08:35:53;;;;;;;10.30;8.40;;;10.10;99.90;;;;;;5027108;28;20493;-74
2022/04/28 08:38:41;;;;;;;7.10;6.13;;;10.10;99.90;;;;;;5019157;28;20960;-74
2022/04/28 08:41:32;;;;;;;9.57;6.80;;;10.30;99.90;;;;;;5034888;28;20477;-75
2022/04/28 08:44:23;;;;;;;11.10;6.90;;;10.50;99.90;;;;;;5032037;28;20486;-73
2022/04/28 08:47:11;;;;;;;9.20;6.07;;;10.60;99.90;;;;;;5030356;28;20470;-73
2022/04/28 08:49:59;;;;;;;7.17;6.20;;;10.70;99.90;;;;;;5031799;28;20469;-74
2022/04/28 08:52:49;;;;;;;10.07;7.50;;;10.60;99.90;;;;;;5024965;28;21001;-74
2022/04/28 08:55:37;;;;;;;8.90;7.20;;;10.70;99.90;;;;;;5030292;28;20527;-74
2022/04/28 08:58:25;;;;;;;8.33;6.73;;;10.70;99.90;;;;;;5039712;28;20518;-74
2022/04/28 09:01:15;;;;;;;8.80;7.20;;;10.80;99.90;;;;;;5037420;28;20469;-74
2022/04/28 09:04:05;;;;;;;7.30;6.57;;;10.90;99.90;;;;;;5028051;28;20484;-75
2022/04/28 09:07:00;;;;;;;9.37;6.97;;;11.00;99.90;;;;;;5034235;28;20576;-74
2022/04/28 09:09:48;;;;;;;9.23;7.70;;;11.00;99.90;;;;;;5027949;28;20848;-75
2022/04/28 09:12:37;;;;;;;9.23;8.20;;;11.10;99.90;;;;;;5026894;28;23807;-75
2022/04/28 09:15:26;;;;;;;8.37;7.47;;;11.20;99.90;;;;;;5032677;28;21263;-75
2022/04/28 09:18:16;;;;;;;8.50;7.70;;;11.30;99.90;;;;;;5036249;28;20513;-73
2022/04/28 09:21:04;;;;;;;9.57;7.30;;;11.40;99.90;;;;;;5035202;28;20470;-73
2022/04/28 09:23:53;;;;;;;8.47;7.13;;;11.60;99.90;;;;;;5038152;28;20482;-73
2022/04/28 09:26:41;;;;;;;9.30;7.27;;;11.70;99.90;;;;;;5040644;28;20557;-72
2022/04/28 09:29:36;;;;;;;8.00;6.50;;;11.80;99.90;;;;;;5033872;28;20461;-73
2022/04/28 09:32:26;;;;;;;8.37;6.73;;;11.80;99.90;;;;;;5025993;28;20466;-73
2022/04/28 09:35:36;;;;;;;10.73;7.70;;;12.00;99.90;;;;;;5024574;28;20461;-73
2022/04/28 09:38:24;;;;;;;12.67;7.57;;;12.00;99.90;;;;;;5041503;28;20461;-73
2022/04/28 09:44:43;;;;;;;8.57;7.40;;;12.10;99.90;;;;;;5032019;28;20494;-73
2022/04/28 09:47:32;;;;;;;10.10;7.60;;;12.20;99.90;;;;;;5036225;28;20482;-73
2022/04/28 09:50:24;;;;;;;9.90;8.20;;;12.30;99.90;;;;;;5026313;28;20477;-74
2022/04/28 09:53:15;;;;;;;9.20;8.27;;;12.40;99.90;;;;;;5038012;28;20497;-74
2022/04/28 09:56:05;;;;;;;8.50;7.70;;;12.60;99.90;;;;;;5034043;28;20977;-74
2022/04/28 09:58:55;;;;;;;9.77;8.10;;;12.60;99.90;;;;;;5039485;28;20449;-74
2022/04/28 10:01:43;;;;;;;8.20;7.27;;;12.70;99.90;;;;;;5034231;28;20459;-74
2022/04/28 10:04:32;;;;;;;8.00;6.37;;;12.90;99.90;;;;;;5022681;28;20572;-74
2022/04/28 10:07:21;;;;;;;10.27;7.83;;;12.90;99.90;;;;;;5036499;28;20476;-71
2022/04/28 10:10:11;;;;;;;9.07;7.73;;;12.90;99.90;;;;;;5035691;28;20471;-73
2022/04/28 10:13:00;;;;;;;8.40;7.27;;;13.00;99.90;;;;;;5037377;28;20479;-73
2022/04/28 10:15:52;;;;;;;7.67;6.97;;;13.10;99.90;;;;;;5031965;28;20454;-72
2022/04/28 10:18:45;;;;;;;9.90;8.00;;;13.10;99.90;;;;;;5034015;28;20454;-75
2022/04/28 10:21:38;;;;;;;12.93;7.60;;;13.10;99.90;;;;;;5034598;28;20469;-74
2022/04/28 10:33:48;;;;;;;9.10;7.80;;;13.60;99.90;;;;;;5026596;28;20486;-74
2022/04/28 10:36:52;;;;;;;11.23;8.17;;;13.60;99.90;;;;;;5033371;28;20451;-74
2022/04/28 10:39:41;;;;;;;9.20;7.60;;;13.70;99.90;;;;;;5036469;28;20481;-73
2022/04/28 10:42:59;;;;;;;7.70;6.90;;;13.70;99.90;;;;;;5035487;28;20482;-73
2022/04/28 10:45:49;;;;;;;9.43;7.17;;;13.80;99.90;;;;;;5034389;28;20486;-73
2022/04/28 10:48:41;;;;;;;9.30;7.33;;;14.00;99.90;;;;;;5026577;28;20525;-75
2022/04/28 10:51:32;;;;;;;7.97;7.17;;;14.10;99.90;;;;;;5048743;28;20477;-81
2022/04/28 10:54:24;;;;;;;8.40;7.70;;;14.30;99.90;;;;;;5052517;28;20478;-80
2022/04/28 10:57:13;;;;;;;8.80;7.97;;;14.40;99.90;;;;;;5043098;28;20536;-77
2022/04/28 11:00:05;;;;;;;8.03;7.23;;;14.60;99.90;;;;;;5042292;28;20897;-76
2022/04/28 11:02:59;;;;;;;9.00;8.20;;;14.80;99.90;;;;;;5037025;28;20485;-76
2022/04/28 11:05:54;;;;;;;25.97;23.33;;;15.00;99.90;;;;;;5048022;28;20478;-78
2022/04/28 11:08:46;;;;;;;13.27;10.27;;;15.10;99.90;;;;;;5043470;28;20504;-75
2022/04/28 11:11:44;;;;;;;14.30;12.90;;;15.20;99.90;;;;;;5047186;28;20525;-75
2022/04/28 11:14:45;;;;;;;10.47;9.57;;;15.30;99.90;;;;;;5038530;28;20985;-74
2022/04/28 11:17:36;;;;;;;11.63;10.43;;;15.40;99.90;;;;;;5044769;28;20532;-74
2022/04/28 11:20:25;;;;;;;12.70;11.53;;;15.50;99.90;;;;;;5039843;28;20512;-75
2022/04/28 11:23:13;;;;;;;9.67;8.67;;;15.60;99.90;;;;;;5039369;28;20494;-75
2022/04/28 11:26:02;;;;;;;10.67;8.63;;;15.70;99.90;;;;;;5043524;28;20456;-74
2022/04/28 11:28:50;;;;;;;11.20;9.80;;;15.70;99.90;;;;;;5043255;28;20477;-75
2022/04/28 11:31:46;;;;;;;11.23;8.87;;;15.80;99.90;;;;;;5038179;28;20492;-74
2022/04/28 11:34:36;;;;;;;13.37;8.07;;;15.80;99.90;;;;;;5037392;28;20487;-74
2022/04/28 11:37:26;;;;;;;12.57;9.23;;;16.00;99.90;;;;;;5029966;28;20461;-73
2022/04/28 11:40:16;;;;;;;10.70;8.63;;;16.10;99.90;;;;;;5040145;28;20625;-75
2022/04/28 11:43:20;;;;;;;9.13;8.30;;;16.20;99.90;;;;;;5040856;28;21588;-74
2022/04/28 11:46:09;;;;;;;10.03;8.93;;;16.40;99.90;;;;;;5034975;28;20847;-74
2022/04/28 11:48:58;;;;;;;11.63;7.90;;;16.50;99.90;;;;;;5037062;28;20474;-74
2022/04/28 11:51:51;;;;;;;10.17;8.87;;;16.60;99.90;;;;;;5038133;28;20469;-74
2022/04/28 11:54:40;;;;;;;12.33;8.80;;;16.60;99.90;;;;;;5036691;28;20477;-73
2022/04/28 11:57:29;;;;;;;16.47;9.80;;;16.80;99.90;;;;;;5039697;28;20573;-74
2022/04/28 12:00:18;;;;;;;13.93;9.07;;;16.80;99.90;;;;;;5036331;28;20535;-75
2022/04/28 12:03:06;;;;;;;9.13;7.87;;;16.80;99.90;;;;;;5032699;28;20480;-74
2022/04/28 12:05:56;;;;;;;8.50;7.70;;;16.80;99.90;;;;;;5034428;28;20750;-74
2022/04/28 12:08:53;;;;;;;9.30;7.73;;;16.70;99.90;;;;;;5036062;28;20505;-75
2022/04/28 12:14:47;;;;;;;10.77;8.17;;;16.70;99.90;;;;;;5028869;28;20486;-73
2022/04/28 12:21:01;;;;;;;8.97;8.17;;;16.70;99.90;;;;;;5034673;28;21107;-75
2022/04/28 12:23:55;;;;;;;8.57;7.73;;;16.70;99.90;;;;;;5040984;28;20497;-76
2022/04/28 12:26:44;;;;;;;10.37;8.17;;;16.60;99.90;;;;;;5034257;28;20450;-74
2022/04/28 12:29:47;;;;;;;8.17;7.47;;;16.60;99.90;;;;;;5031493;28;20544;-74
2022/04/28 12:32:43;;;;;;;9.13;8.30;;;16.60;99.90;;;;;;5041394;28;20628;-73
2022/04/28 12:35:36;;;;;;;8.13;7.43;;;16.70;99.90;;;;;;5029558;28;20451;-71
2022/04/28 12:38:27;;;;;;;8.10;7.30;;;16.70;99.90;;;;;;5033965;28;20456;-73
2022/04/28 12:41:19;;;;;;;9.80;7.60;;;16.60;99.90;;;;;;5041290;28;20478;-73
2022/04/28 12:44:07;;;;;;;8.03;7.33;;;16.50;99.90;;;;;;5040755;28;20512;-74
2022/04/28 12:47:05;;;;;;;8.20;7.43;;;16.50;99.90;;;;;;5044087;28;20453;-73
2022/04/28 12:49:54;;;;;;;9.70;8.70;;;16.60;99.90;;;;;;5049666;28;20485;-75
2022/04/28 12:52:42;;;;;;;8.40;7.70;;;16.80;99.90;;;;;;5047599;28;20531;-74
2022/04/28 12:55:36;;;;;;;8.53;7.70;;;17.00;99.90;;;;;;5039364;28;20472;-74
2022/04/28 12:58:27;;;;;;;9.43;8.63;;;17.10;99.90;;;;;;5048544;28;20442;-75
2022/04/28 13:01:18;;;;;;;10.20;8.27;;;17.30;99.90;;;;;;5045762;28;21082;-75
2022/04/28 13:04:09;;;;;;;7.73;7.03;;;17.60;99.90;;;;;;5035879;28;20482;-75
2022/04/28 13:06:57;;;;;;;7.90;6.90;;;17.90;99.90;;;;;;5044723;28;20469;-75
2022/04/28 13:09:50;;;;;;;7.07;6.47;;;18.00;99.90;;;;;;5030791;28;20584;-75
2022/04/28 13:12:38;;;;;;;6.70;6.10;;;18.10;99.90;;;;;;5042070;28;20469;-75
2022/04/28 13:15:27;;;;;;;7.13;6.43;;;18.40;99.90;;;;;;5034752;28;20449;-72
2022/04/28 13:18:16;;;;;;;7.97;7.27;;;18.60;99.90;;;;;;5041507;28;20482;-75
2022/04/28 13:21:04;;;;;;;8.33;7.53;;;18.70;99.90;;;;;;5030105;28;20509;-74
2022/04/28 13:23:52;;;;;;;7.70;7.00;;;18.80;99.90;;;;;;5043442;28;20466;-75
2022/04/28 13:26:41;;;;;;;7.97;7.27;;;18.90;99.90;;;;;;5048186;28;20462;-75
2022/04/28 13:29:29;;;;;;;7.30;6.63;;;19.10;99.90;;;;;;5048528;28;20496;-81
2022/04/28 13:32:18;;;;;;;9.23;8.40;;;19.20;99.90;;;;;;5055044;28;20490;-83
2022/04/28 13:35:07;;;;;;;9.47;7.43;;;19.00;99.90;;;;;;5062011;28;20480;-81
2022/04/28 13:37:56;;;;;;;8.07;7.27;;;18.80;99.90;;;;;;5045828;28;20467;-74
2022/04/28 13:40:44;;;;;;;7.67;6.97;;;18.90;99.90;;;;;;5040064;28;20525;-73
2022/04/28 13:43:32;;;;;;;7.33;6.73;;;19.10;99.90;;;;;;5036174;28;20518;-74
2022/04/28 13:46:20;;;;;;;9.00;7.27;;;19.40;99.90;;;;;;5047878;28;20563;-74
2022/04/28 13:49:10;;;;;;;8.70;6.90;;;19.40;99.90;;;;;;5046691;28;20476;-74
2022/04/28 13:51:58;;;;;;;7.63;6.87;;;19.50;99.90;;;;;;5043227;28;20862;-74
2022/04/28 13:54:46;;;;;;;6.87;6.27;;;19.40;99.90;;;;;;5018939;28;21275;-73
2022/04/28 13:57:35;;;;;;;6.20;5.70;;;19.40;99.90;;;;;;5025429;28;20470;-74
2022/04/28 14:00:23;;;;;;;6.37;5.80;;;19.50;99.90;;;;;;5026757;28;20482;-74
2022/04/28 14:03:12;;;;;;;7.40;6.07;;;19.80;99.90;;;;;;5028756;28;20485;-74
2022/04/28 14:06:04;;;;;;;6.57;5.23;;;20.00;99.90;;;;;;5040397;28;20518;-74
2022/04/28 14:08:52;;;;;;;4.93;4.50;;;20.20;99.90;;;;;;5026673;28;20554;-74
2022/04/28 14:11:41;;;;;;;7.30;4.50;;;20.30;99.90;;;;;;5046130;28;20555;-71
2022/04/28 14:14:29;;;;;;;4.93;4.40;;;20.30;99.90;;;;;;5040351;28;20569;-72
2022/04/28 14:17:17;;;;;;;5.13;4.17;;;20.20;99.90;;;;;;5048030;28;21029;-75
2022/04/28 14:20:09;;;;;;;6.73;4.10;;;19.80;99.90;;;;;;5043505;28;20992;-74
2022/04/28 14:22:58;;;;;;;3.60;3.30;;;19.60;99.90;;;;;;5046507;28;21028;-73
2022/04/28 14:25:46;;;;;;;6.40;3.63;;;19.60;99.90;;;;;;5035734;28;20468;-73
2022/04/28 14:28:35;;;;;;;3.73;3.30;;;20.00;99.90;;;;;;5038587;28;20455;-74
2022/04/28 14:31:23;;;;;;;5.07;3.10;;;20.90;99.90;;;;;;5040430;28;20564;-74
2022/04/28 14:34:31;;;;;;;3.10;2.80;;;22.00;99.90;;;;;;5040507;28;20478;-74
2022/04/28 14:37:19;;;;;;;4.23;2.60;;;23.00;99.90;;;;;;5049899;28;20591;-74
2022/04/28 14:40:12;;;;;;;4.20;2.47;;;23.70;99.90;;;;;;5031517;28;20510;-74
2022/04/28 14:43:00;;;;;;;7.57;2.40;;;24.20;99.90;;;;;;5031170;28;20965;-75
2022/04/28 14:45:50;;;;;;;4.00;2.80;;;24.30;99.90;;;;;;5037776;28;20536;-76
2022/04/28 14:54:47;;;;;;;2.60;2.33;;;23.60;99.90;;;;;;5028317;28;20974;-74
2022/04/28 14:57:39;;;;;;;2.60;2.40;;;23.30;99.90;;;;;;5024503;28;20484;-74
2022/04/28 15:00:28;;;;;;;3.70;2.20;;;23.00;99.90;;;;;;5016656;28;20510;-75
2022/04/28 15:03:17;;;;;;;3.03;2.10;;;22.60;99.90;;;;;;5034966;28;20466;-75
2022/04/28 15:06:06;;;;;;;4.63;2.50;;;22.10;99.90;;;;;;5032479;28;20959;-77
2022/04/28 15:08:54;;;;;;;5.30;2.60;;;21.90;99.90;;;;;;5039366;28;20550;-76
2022/04/28 15:11:42;;;;;;;4.90;2.13;;;21.60;99.90;;;;;;5045913;28;20564;-78
2022/04/28 15:14:32;;;;;;;4.17;2.17;;;21.50;99.90;;;;;;5038879;28;20478;-78
2022/04/28 15:17:21;;;;;;;5.47;2.27;;;21.20;99.90;;;;;;5039626;28;20443;-78
2022/04/28 15:20:12;;;;;;;4.70;2.33;;;21.10;99.90;;;;;;5039495;28;20573;-78
2022/04/28 15:23:00;;;;;;;3.40;2.40;;;20.90;99.90;;;;;;5047352;28;20501;-78
2022/04/28 15:25:48;;;;;;;6.13;2.23;;;20.60;99.90;;;;;;5037320;28;20447;-77
2022/04/28 15:28:37;;;;;;;4.20;2.20;;;20.30;99.90;;;;;;5030918;28;21301;-73